Latest Weather Observations for Sydney Airport

IDN60901

Issued at 10:05 pm EST Sunday 21 September 2014 (issued every 10 minutes, with the page automatically refreshed every 10 minutes)

About weather observations | Map of Sydney area stations | Latest observations for Sydney area | Other Formats
Station Details ID: 066037 Name: SYDNEY AIRPORT AMO Lat: -33.95 Lon: 151.17 Height: 6.0 m
Data from the previous 72 hours. | See also: Recent months at Sydney Airport
Date/Time
EST
Tmp

°C
App
Tmp
°C
Dew
Point
°C
Rel
Hum
%
Delta-T

°C
Wind Press
QNH
hPa
Press
MSL
hPa
Rain
since
9 am
mm
Dir
 
Spd
km/h
Gust
km/h
Spd
kts
Gust
kts
21/10:00pm 15.8 13.2 9.4 65 3.3 SSE 13 15 7 8 1030.9 1030.9 0.2
21/09:30pm 16.1 13.9 9.5 65 3.4 SE 11 13 6 7 1031.0 1031.0 0.2
21/09:00pm 16.0 13.5 9.6 66 3.3 SE 13 17 7 9 1030.9 1030.9 0.2
21/08:30pm 16.3 13.6 9.1 62 3.7 SE 13 15 7 8 1030.8 1030.8 0.2
21/08:00pm 16.5 13.8 8.9 61 3.9 ESE 13 17 7 9 1030.4 1030.4 0.2
21/07:30pm 15.9 12.4 8.6 62 3.7 SE 17 20 9 11 1029.9 1029.9 0.2
21/07:00pm 16.4 12.3 8.0 57 4.2 SE 19 22 10 12 1029.3 1029.3 0.2
21/06:30pm 16.2 12.5 7.8 57 4.2 SE 17 22 9 12 1028.6 1028.6 0.2
21/06:00pm 16.2 11.9 7.8 57 4.2 SE 20 26 11 14 1028.2 1028.2 0.2
21/05:30pm 16.6 12.2 7.6 55 4.5 SE 20 28 11 15 1028.0 1028.0 0.2
21/05:00pm 17.2 12.5 7.6 53 4.8 SE 22 28 12 15 1027.7 1027.7 0.2
21/04:30pm 17.6 13.2 7.4 51 5.1 SE 20 26 11 14 1027.5 1027.5 0.2
21/04:00pm 17.8 13.5 7.7 51 5.1 SE 20 26 11 14 1027.4 1027.4 0.2
21/03:30pm 18.0 13.7 7.7 51 5.2 SE 20 28 11 15 1027.4 1027.4 0.2
21/03:00pm 17.9 13.3 6.3 46 5.7 SE 20 28 11 15 1027.4 1027.4 0.2
21/02:30pm 18.4 14.0 7.5 49 5.5 SE 20 24 11 13 1027.6 1027.6 0.2
21/02:00pm 18.7 14.1 6.6 45 6.0 ESE 20 26 11 14 1027.8 1027.8 0.2
21/01:30pm 18.5 14.2 6.8 46 5.8 ESE 19 26 10 14 1028.3 1028.3 0.2
21/01:00pm 18.0 14.7 9.6 58 4.4 SSE 17 20 9 11 1028.6 1028.6 0.2
21/12:30pm 17.5 12.8 9.2 58 4.3 S 24 28 13 15 1029.2 1029.2 0.2
21/12:00pm 17.3 12.1 8.9 57 4.3 S 26 32 14 17 1029.7 1029.7 0.2
21/11:30am 17.1 12.3 8.7 57 4.3 S 24 30 13 16 1029.9 1029.9 0.2
21/11:00am 17.4 12.5 8.6 56 4.5 S 24 30 13 16 1030.3 1030.3 0.0
21/10:30am 17.3 13.2 10.1 62 3.8 S 22 32 12 17 1030.7 1030.7 0.0
21/10:00am 16.4 12.3 10.1 66 3.3 SSW 22 30 12 16 1030.7 1030.7 0.0
21/09:30am 15.9 11.9 10.6 71 2.8 SSW 22 28 12 15 1030.5 1030.5 0.0
21/09:00am 15.6 11.2 10.4 71 2.7 SSW 24 32 13 17 1030.4 1030.4 0.0
21/08:30am 15.8 12.3 10.2 69 2.9 SW 19 22 10 12 1030.2 1030.2 0.0
21/08:00am 14.7 11.0 9.4 70 2.7 SW 19 22 10 12 1029.6 1029.6 0.0
21/07:30am 13.6 10.2 9.0 74 2.3 WSW 17 22 9 12 1029.3 1029.3 0.0
21/07:00am 12.6 9.0 8.5 76 2.0 WSW 17 35 9 19 1028.9 1028.9 0.0
21/06:30am 12.1 8.2 8.7 80 1.7 W 19 22 10 12 1028.4 1028.4 0.0
21/05:30am 11.7 7.9 9.1 84 1.3 W 19 22 10 12 1027.8 1027.8 0.0
21/05:00am 11.6 8.4 8.5 81 1.5 W 15 19 8 10 1027.7 1027.7 0.0
21/04:30am 11.5 8.7 8.4 81 1.5 NW 13 15 7 8 1027.5 1027.5 0.0
21/04:00am 11.9 9.2 9.1 83 1.4 W 13 17 7 9 1027.3 1027.3 0.0
21/03:30am 11.5 8.4 8.7 83 1.4 W 15 19 8 10 1027.2 1027.2 0.0
21/03:00am 11.4 8.0 9.2 86 1.1 WNW 17 20 9 11 1027.2 1027.2 0.0
21/02:30am 11.8 9.5 9.0 83 1.4 WNW 11 15 6 8 1027.6 1027.6 0.0
21/02:00am 12.0 8.6 7.6 74 2.1 NW 15 17 8 9 1027.6 1027.6 0.0
21/01:30am 13.1 10.3 8.5 73 2.3 WNW 13 15 7 8 1027.7 1027.7 0.0
21/01:00am 13.6 10.2 9.2 75 2.2 SW 17 26 9 14 1027.9 1027.9 0.0
21/12:30am 13.3 10.2 8.7 73 2.3 WSW 15 17 8 9 1028.0 1028.0 0.0
21/12:00am 13.3 9.7 8.2 71 2.5 WSW 17 19 9 10 1028.0 1028.0 0.0
 
Date/Time
EST
Tmp

°C
App
Tmp
°C
Dew
Point
°C
Rel
Hum
%
Delta-T

°C
Wind Press
QNH
hPa
Press
MSL
hPa
Rain
since
9 am
mm
Dir
 
Spd
km/h
Gust
km/h
Spd
kts
Gust
kts
20/11:30pm 13.7 10.3 7.8 67 2.9 W 15 17 8 9 1027.9 1027.9 0.0
20/11:00pm 14.0 10.5 7.4 64 3.2 W 15 19 8 10 1027.9 1027.9 0.0
20/10:30pm 14.6 11.6 7.7 63 3.4 WSW 13 19 7 10 1028.0 1028.0 0.0
20/10:00pm 14.5 11.2 8.0 65 3.2 S 15 20 8 11 1027.9 1027.9 0.0
20/09:30pm 15.3 10.8 8.5 64 3.4 S 22 30 12 16 1027.8 1027.8 0.0
20/09:00pm 16.2 11.7 8.7 61 3.8 S 22 30 12 16 1027.6 1027.6 0.0
20/08:30pm 16.0 12.2 8.9 62 3.6 S 19 24 10 13 1027.2 1027.2 0.0
20/08:00pm 15.5 11.4 8.6 63 3.5 SSE 20 28 11 15 1026.9 1026.9 0.0
20/07:30pm 15.8 10.7 7.5 58 4.1 SSE 24 28 13 15 1026.7 1026.7 0.0
20/07:00pm 15.9 11.3 8.1 60 3.9 SSE 22 30 12 16 1026.3 1026.3 0.0
20/06:30pm 15.7 11.2 6.9 56 4.3 SSE 20 26 11 14 1025.8 1025.8 0.0
20/06:00pm 15.8 10.3 7.5 58 4.1 SSE 26 33 14 18 1025.4 1025.4 0.0
20/05:30pm 16.2 10.1 6.5 52 4.7 SSE 28 33 15 18 1024.9 1024.9 0.0
20/05:00pm 16.3 10.1 6.2 51 4.9 SSE 28 33 15 18 1024.5 1024.5 0.0
20/04:30pm 16.6 10.3 5.5 48 5.3 S 28 33 15 18 1024.1 1024.1 0.0
20/04:00pm 16.4 10.8 7.3 55 4.5 SSE 26 32 14 17 1024.0 1024.0 0.0
20/03:30pm 16.7 11.0 6.5 51 5.0 SSE 26 32 14 17 1023.7 1023.7 0.0
20/03:00pm 17.2 11.3 5.8 47 5.5 SSE 26 35 14 19 1023.8 1023.8 0.0
20/02:30pm 16.6 10.8 7.8 56 4.4 S 28 33 15 18 1023.8 1023.8 0.0
20/02:00pm 17.2 11.4 6.1 48 5.4 S 26 33 14 18 1023.7 1023.7 0.0
20/01:30pm 16.7 10.5 7.7 55 4.5 S 30 37 16 20 1023.9 1023.9 0.0
20/01:00pm 16.8 10.7 6.8 51 4.9 SSE 28 37 15 20 1024.0 1024.0 0.0
20/12:30pm 17.0 11.0 6.9 51 5.0 S 28 35 15 19 1024.0 1024.0 0.0
20/12:00pm 16.6 10.1 6.6 51 4.9 S 30 35 16 19 1024.2 1024.2 0.0
20/11:30am 16.8 10.5 7.3 53 4.7 S 30 35 16 19 1024.4 1024.4 0.0
20/11:00am 16.5 9.9 7.9 57 4.3 S 32 37 17 20 1024.6 1024.6 0.0
20/10:50am 17.0 11.2 8.1 55 4.5 S 28 46 15 25 1024.6 1024.6 0.0
20/10:30am 16.7 10.3 8.4 58 4.2 S 32 41 17 22 1024.6 1024.6 0.0
20/10:00am 16.7 10.5 9.3 61 3.8 S 32 39 17 21 1024.6 1024.6 0.0
20/09:30am 16.5 11.0 9.1 61 3.8 S 28 33 15 18 1024.7 1024.7 0.0
20/09:00am 15.7 12.6 7.2 57 4.2 SSW 13 19 7 10 1024.6 1024.6 0.0
20/08:30am 14.5 11.7 5.3 54 4.3 W 9 13 5 7 1024.2 1024.2 0.0
20/08:00am 13.8 10.9 4.7 54 4.2 NW 9 11 5 6 1023.9 1023.9 0.0
20/07:30am 12.3 9.3 4.0 57 3.7 NW 9 11 5 6 1023.7 1023.7 0.0
20/07:00am 11.1 7.3 4.1 62 3.1 NW 13 17 7 9 1023.3 1023.3 0.0
20/06:30am 9.8 6.1 4.4 69 2.4 NW 13 19 7 10 1022.9 1022.9 0.0
20/06:00am 9.1 5.4 4.3 72 2.1 NW 13 15 7 8 1022.3 1022.3 0.0
20/05:30am 9.1 5.7 4.1 71 2.2 NNW 11 13 6 7 1021.9 1021.9 0.0
20/05:00am 9.0 5.3 4.7 74 1.9 NW 13 15 7 8 1021.5 1021.5 0.0
20/04:30am 8.8 5.4 4.2 73 2.0 NW 11 13 6 7 1021.1 1021.1 0.0
20/04:00am 9.4 6.4 4.2 70 2.3 NW 9 11 5 6 1020.8 1020.8 0.0
20/03:30am 10.0 6.6 3.8 65 2.7 NNW 11 13 6 7 1020.8 1020.8 0.0
20/03:00am 9.7 5.9 4.0 67 2.5 NNW 13 13 7 7 1020.9 1020.9 0.0
20/02:30am 9.9 6.1 4.0 67 2.6 NNW 13 15 7 8 1021.1 1021.1 0.0
20/02:00am 10.7 7.3 3.9 63 3.0 NNW 11 13 6 7 1021.1 1021.1 0.0
20/01:30am 10.6 6.9 4.3 65 2.8 NNW 13 15 7 8 1021.5 1021.5 0.0
20/01:00am 11.7 8.4 4.4 61 3.3 NNW 11 11 6 6 1021.6 1021.6 0.0
20/12:30am 11.5 7.4 4.6 62 3.1 N 15 15 8 8 1021.7 1021.7 0.0
20/12:00am 12.2 9.4 5.2 62 3.2 NNW 9 11 5 6 1021.7 1021.7 0.0
 
Date/Time
EST
Tmp

°C
App
Tmp
°C
Dew
Point
°C
Rel
Hum
%
Delta-T

°C
Wind Press
QNH
hPa
Press
MSL
hPa
Rain
since
9 am
mm
Dir
 
Spd
km/h
Gust
km/h
Spd
kts
Gust
kts
19/11:30pm 12.3 10.2 5.6 63 3.1 W 6 7 3 4 1021.9 1021.9 0.0
19/11:00pm 13.3 10.6 5.6 59 3.6 WNW 9 9 5 5 1021.9 1021.9 0.0
19/10:30pm 13.5 10.7 5.1 57 3.9 WSW 9 11 5 6 1022.0 1022.0 0.0
19/10:00pm 12.9 9.9 5.9 62 3.3 WSW 11 13 6 7 1022.1 1022.1 0.0
19/09:30pm 13.8 10.9 6.7 62 3.4 S 11 15 6 8 1021.9 1021.9 0.0
19/09:00pm 13.8 10.3 5.5 57 3.9 SE 13 15 7 8 1021.8 1021.8 0.0
19/08:30pm 14.3 10.5 5.6 56 4.1 SE 15 17 8 9 1021.5 1021.5 0.0
19/08:00pm 14.6 11.4 5.2 53 4.4 SE 11 13 6 7 1021.4 1021.4 0.0
19/07:30pm 14.9 11.6 4.5 49 4.8 ESE 11 13 6 7 1021.1 1021.1 0.0
19/07:00pm 14.8 10.8 4.9 51 4.6 SE 15 17 8 9 1020.7 1020.7 0.0
19/06:30pm 15.1 10.9 5.6 53 4.5 SSE 17 20 9 11 1020.4 1020.4 0.0
19/06:00pm 15.5 11.1 6.4 54 4.4 SSE 19 24 10 13 1020.0 1020.0 0.0
19/05:30pm 16.0 11.3 5.0 48 5.2 SE 19 24 10 13 1019.6 1019.6 0.0
19/05:00pm 16.4 12.1 3.0 40 6.1 ESE 15 20 8 11 1019.3 1019.3 0.0
19/04:30pm 16.9 12.1 2.8 39 6.4 ESE 17 24 9 13 1018.9 1018.9 0.0
19/04:00pm 17.1 12.4 3.1 39 6.4 ESE 17 24 9 13 1018.8 1018.8 0.0
19/03:30pm 17.8 12.6 3.3 38 6.7 ESE 20 26 11 14 1018.7 1018.7 0.0
19/03:00pm 18.1 12.5 3.2 37 6.9 E 22 26 12 14 1018.6 1018.6 0.0
19/02:30pm 19.0 13.9 2.8 34 7.5 E 19 28 10 15 1018.5 1018.5 0.0
19/02:00pm 19.9 14.6 -4.0 19 9.7 E 15 20 8 11 1018.7 1018.7 0.0
19/01:30pm 19.0 15.2 1.8 31 7.8 SE 11 15 6 8 1019.1 1019.1 0.0
19/01:00pm 19.3 15.0 -1.4 24 8.8 SSE 11 15 6 8 1019.5 1019.5 0.0
19/12:30pm 17.8 13.8 0.7 31 7.5 SE 11 15 6 8 1019.9 1019.9 0.0
19/12:00pm 18.4 14.8 0.3 29 7.9 S 9 15 5 8 1020.4 1020.4 0.0
19/11:30am 17.4 12.9 -0.4 30 7.6 WNW 13 24 7 13 1020.9 1020.9 0.0
19/11:00am 19.0 14.7 1.0 30 8.0 NNW 13 22 7 12 1021.4 1021.4 0.0
19/10:30am 17.6 13.5 2.0 35 7.0 NW 13 30 7 16 1021.7 1021.7 0.0
19/10:00am 17.0 13.4 2.9 39 6.4 WNW 11 19 6 10 1022.1 1022.1 0.0
19/09:30am 16.9 13.3 2.8 39 6.4 WNW 11 13 6 7 1022.1 1022.1 0.0
19/09:00am 15.3 11.7 3.1 44 5.5 NW 11 15 6 8 1022.1 1022.1 0.0
19/08:30am 14.1 10.1 2.8 46 5.0 NW 13 19 7 10 1022.2 1022.2 0.0
19/08:00am 13.0 8.9 2.4 48 4.6 WNW 13 17 7 9 1022.2 1022.2 0.0
19/07:30am 11.3 7.2 2.1 53 3.9 WNW 13 17 7 9 1021.9 1021.9 0.0
19/07:00am 10.2 6.5 2.1 57 3.4 WNW 11 15 6 8 1021.9 1021.9 0.0
19/06:30am 9.4 4.9 2.0 60 3.1 WNW 15 22 8 12 1021.7 1021.7 0.0
19/06:00am 9.3 5.1 1.5 58 3.2 WNW 13 15 7 8 1021.4 1021.4 0.0
19/05:30am 9.5 5.3 1.8 58 3.2 WNW 13 19 7 10 1021.2 1021.2 0.0
19/05:00am 9.1 4.6 1.9 60 3.0 WNW 15 17 8 9 1021.1 1021.1 0.0
19/04:30am 9.2 5.4 2.0 60 3.0 WNW 11 15 6 8 1020.8 1020.8 0.0
19/04:00am 9.9 6.1 1.7 56 3.4 N 11 13 6 7 1020.4 1020.4 0.0
19/03:30am 9.5 5.8 2.1 60 3.1 WNW 11 13 6 7 1020.3 1020.3 0.0
19/03:00am 9.8 5.6 1.9 58 3.3 WNW 13 15 7 8 1020.3 1020.3 0.0
19/02:30am 10.0 6.2 1.6 56 3.5 W 11 15 6 8 1020.4 1020.4 0.0
19/02:00am 10.4 5.4 1.2 53 3.8 WNW 17 19 9 10 1020.7 1020.7 0.0
19/01:30am 10.3 6.1 1.7 55 3.6 W 13 17 7 9 1020.8 1020.8 0.0
19/01:00am 11.1 6.5 1.3 51 4.1 WNW 15 19 8 10 1020.9 1020.9 0.0
19/12:30am 11.7 7.0 1.2 48 4.4 WNW 15 17 8 9 1020.9 1020.9 0.0
19/12:00am 11.9 6.5 1.5 49 4.4 W 19 22 10 12 1021.1 1021.1 0.0
 
Date/Time
EST
Tmp

°C
App
Tmp
°C
Dew
Point
°C
Rel
Hum
%
Delta-T

°C
Wind Press
QNH
hPa
Press
MSL
hPa
Rain
since
9 am
mm
Dir
 
Spd
km/h
Gust
km/h
Spd
kts
Gust
kts
18/11:30pm 12.1 7.9 1.4 48 4.5 WNW 13 15 7 8 1021.2 1021.2 0.0
18/11:00pm 12.5 7.9 1.4 46 4.7 W 15 17 8 9 1021.3 1021.3 0.0
18/10:30pm 12.6 7.9 0.9 44 4.9 WSW 15 17 8 9 1021.2 1021.2 0.0

Latest Capital City Observations: Canberra | Sydney | Melbourne | Brisbane | Adelaide | Perth | Hobart | Darwin

Other Formats:

Comma delimited format used in spreadsheet applications
http://www.bom.gov.au/fwo/IDN60901/IDN60901.94767.axf

JavaScript Object Notation format (JSON) in row-major order
http://www.bom.gov.au/fwo/IDN60901/IDN60901.94767.json